KRNT - Renton
Updated: Sun, 19-Feb-2017 2:53pm PST

 Wind from ESE
Wind: ESE 6 mph , 9 km/h
Temperature: 46°F , 8°C
Wind Chill: 43°F , 6°C
Dew Point: 43°F , 6°C
Humidity: 87%
Barometer: 29.50 inHg , 999 hPa
Visibility: 10 miles , 16 km
Cloud details: 4500 ft
5500 ft
7500 ft
2017/02/19 22:53 KRNT 192253Z 11005KT 10SM FEW045 BKN055 OVC075 08/06 A2950 RMK AO2 RAB2155E30 SLP993 P0001 T00780061 $
KBFI - Seattle-Boeing
Updated: Sun, 19-Feb-2017 2:53pm PST
Light rain, Overcast
Light rain, Overcast
 Wind from SE
Wind: SE 7 mph , 11 km/h
Temperature: 46°F , 8°C
Wind Chill: 42°F , 6°C
Dew Point: 43°F , 6°C
Humidity: 87%
Barometer: 29.49 inHg , 998.6 hPa
Visibility: 10 miles , 16 km
Cloud details: 4100 ft
4800 ft
7000 ft
2017/02/19 22:53 KBFI 192253Z 14006KT 10SM -RA SCT041 BKN048 OVC070 08/06 A2949 RMK AO2 SLP987 P0004 T00780061
 
KSEA - Seattle
Updated: Sun, 19-Feb-2017 2:53pm PST

 Wind from SSE
Wind: SSE 12 mph , 19 km/h
Temperature: 46°F , 8°C
Wind Chill: 40°F , 4°C
Dew Point: 39°F , 4°C
Humidity: 76%
Barometer: 29.49 inHg , 998.6 hPa
Visibility: 10 miles , 16 km
Cloud details: 4500 ft
5500 ft
7000 ft
2017/02/19 22:53 KSEA 192253Z 16010KT 10SM BKN045 BKN055 OVC070 08/04 A2949 RMK AO2 RAE25 SLP994 P0002 T00780044 $
KSMP - Stampede Pass
Updated: Sun, 19-Feb-2017 2:22pm PST
Freezing fog, Overcast
Freezing fog, Overcast
 Wind from varies
Wind: varies 3 mph , 6 km/h
Temperature: 30°F , -1°C
Dew Point: 30°F , -1°C
Humidity: 100%
Barometer: 29.44 inHg , 997 hPa
Visibility: 1/4 mile , 2 km
Cloud details: 200 ft
2017/02/19 22:22 KSMP 192222Z AUTO VRB03KT 1/4SM FZFG VV002 M01/M01 A2944 RMK AO2 SNE13 T10061006 PNO $